»·PEaware :: SWA5175 KBUR-KOAK

SWA5175 :: KBUR-KOAK

FLIGHT INFORMATION

Flight Status: Arrived
Operator:
Southwest Airlines
More flights by this operator :: More flights under this callsign
Pilot: Nehseem A. (13724)
Aircraft: BOEING 737-200
(B732)
More flights by this aircraft type
Origin: KBUR Bob Hope-Burbank
United States
Destination: KOAK Metro Oakland Intl
United States
More flights between these airports :: More routes between these airports
Route: VNY3 AVE PXN5
File this flight plan on PilotEdge
Remarks:
Altitude:
(Current/Filed)
30,000ft
Speed:
(Current/Filed)
441kts
Departed: 31-Jan-18 12:25 PM
Arrived: 31-Jan-18 01:26 PM
Distance/Time
Traveled:
282nm/1:01
Distance/Time
To Go:
Arrived

Flight Plot

Page will automatically refresh every two minutes.

Flight plan parsing failed; only flown route is shown


Map Options




Map Legend


Flown Route
Filed Route
Departure Airport
Arrival Airport
Navaid (VOR, NDB)
Fix

Horizontal Profiles

Position Reports

Time Latitude Longitude Heading Altitude Ground
Speed
31-Jan-18 11:29 34.196781 -118.352374 179 786ft 0kts
31-Jan-18 11:30 34.196782 -118.352374 179 786ft 0kts
31-Jan-18 11:31 34.196781 -118.352374 179 786ft 0kts
31-Jan-18 11:32 34.196782 -118.352374 179 786ft 0kts
31-Jan-18 11:33 34.196782 -118.352374 179 786ft 0kts
31-Jan-18 11:34 34.196782 -118.352374 179 786ft 0kts
31-Jan-18 11:35 34.196782 -118.352374 179 786ft 0kts
31-Jan-18 11:36 34.196782 -118.352374 179 786ft 0kts
31-Jan-18 11:37 34.196782 -118.352374 179 786ft 0kts
31-Jan-18 11:38 34.196782 -118.352374 179 786ft 0kts
31-Jan-18 11:39 34.196782 -118.352374 179 786ft 0kts
31-Jan-18 11:40 34.196782 -118.352374 179 786ft 0kts
31-Jan-18 11:41 34.196782 -118.352374 179 786ft 0kts
31-Jan-18 11:42 34.196782 -118.352374 179 786ft 0kts
31-Jan-18 11:43 34.196782 -118.352374 179 786ft 0kts
31-Jan-18 11:44 34.196782 -118.352374 179 786ft 0kts
31-Jan-18 11:45 34.196782 -118.352374 179 786ft 0kts
31-Jan-18 11:46 34.196782 -118.352374 179 786ft 0kts
31-Jan-18 11:47 34.196782 -118.352374 179 786ft 0kts
31-Jan-18 11:48 34.196782 -118.352374 179 786ft 0kts
31-Jan-18 11:49 34.196782 -118.352374 179 786ft 0kts
31-Jan-18 11:50 34.196782 -118.352374 179 786ft 0kts
31-Jan-18 11:51 34.196782 -118.352374 179 786ft 0kts
31-Jan-18 11:52 34.196782 -118.352374 179 786ft 0kts
31-Jan-18 11:53 34.196782 -118.352374 179 786ft 0kts
31-Jan-18 11:54 34.196782 -118.352374 179 786ft 0kts
31-Jan-18 11:55 34.196782 -118.352374 179 786ft 0kts
31-Jan-18 11:56 34.196782 -118.352374 179 786ft 0kts
31-Jan-18 11:57 34.196782 -118.352374 179 786ft 0kts
31-Jan-18 11:58 34.196782 -118.352374 179 786ft 0kts
31-Jan-18 11:59 34.196782 -118.352374 179 786ft 0kts
31-Jan-18 12:00 34.196804 -118.352374 179 786ft 2kts
31-Jan-18 12:01 34.197176 -118.351937 271 786ft 0kts
31-Jan-18 12:02 34.197175 -118.351910 271 786ft 0kts
31-Jan-18 12:03 34.197175 -118.351911 271 786ft 0kts
31-Jan-18 12:04 34.197175 -118.351911 271 786ft 0kts
31-Jan-18 12:05 34.197175 -118.351911 271 786ft 0kts
31-Jan-18 12:06 34.197175 -118.351911 271 786ft 0kts
31-Jan-18 12:07 34.197175 -118.351911 271 786ft 0kts
31-Jan-18 12:08 34.197175 -118.351911 272 786ft 0kts
31-Jan-18 12:09 34.197175 -118.351911 271 786ft 0kts
31-Jan-18 12:10 34.197175 -118.351911 271 786ft 0kts
31-Jan-18 12:11 34.197175 -118.351911 271 786ft 0kts
31-Jan-18 12:12 34.197175 -118.351911 271 786ft 0kts
31-Jan-18 12:13 34.197175 -118.351911 271 786ft 0kts
31-Jan-18 12:14 34.197175 -118.351911 271 786ft 0kts
31-Jan-18 12:15 34.197175 -118.351911 271 786ft 0kts
31-Jan-18 12:16 34.197175 -118.351911 271 786ft 0kts
31-Jan-18 12:17 34.197175 -118.351911 271 786ft 0kts
31-Jan-18 12:18 34.196781 -118.352374 179 786ft 0kts
31-Jan-18 12:19 34.196781 -118.352374 179 786ft 0kts
31-Jan-18 12:20 34.196781 -118.352374 180 786ft 0kts
31-Jan-18 12:21 34.196781 -118.352374 180 786ft 0kts
31-Jan-18 12:22 34.196777 -118.352374 180 786ft 0kts
31-Jan-18 12:23 34.197132 -118.352155 239 786ft 2kts
31-Jan-18 12:24 34.197186 -118.351899 271 786ft 0kts
31-Jan-18 12:25 34.197186 -118.351900 271 786ft 0kts
31-Jan-18 12:26 34.197177 -118.352602 268 786ft 10kts
31-Jan-18 12:27 34.201265 -118.356034 346 786ft 23kts
31-Jan-18 12:28 34.207290 -118.357689 345 786ft 30kts
31-Jan-18 12:29 34.211742 -118.359098 304 786ft 0kts
31-Jan-18 12:30 34.211492 -118.360226 174 786ft 17kts
31-Jan-18 12:31 34.190323 -118.354389 168 1031ft 163kts
31-Jan-18 12:32 34.148609 -118.387458 225 2338ft 205kts
31-Jan-18 12:33 34.115302 -118.439107 272 4285ft 199kts
31-Jan-18 12:34 34.152117 -118.488033 329 6047ft 220kts
31-Jan-18 12:35 34.212033 -118.543702 323 8716ft 247kts
31-Jan-18 12:36 34.263832 -118.583173 330 10679ft 280kts
31-Jan-18 12:37 34.335493 -118.627265 336 13312ft 307kts
31-Jan-18 12:38 34.411597 -118.665470 335 16067ft 313kts
31-Jan-18 12:39 34.495480 -118.706059 339 18100ft 337kts
31-Jan-18 12:40 34.582842 -118.749842 325 19566ft 365kts
31-Jan-18 12:41 34.669626 -118.806128 332 21398ft 377kts
31-Jan-18 12:42 34.765826 -118.845867 340 23745ft 366kts
31-Jan-18 12:43 34.858134 -118.901156 323 25020ft 380kts
31-Jan-18 12:44 34.941818 -118.974070 325 26505ft 383kts
31-Jan-18 12:45 35.027871 -119.046032 326 28016ft 380kts
31-Jan-18 12:46 35.112866 -119.116431 327 29176ft 383kts
31-Jan-18 12:47 35.202206 -119.189875 326 29987ft 393kts
31-Jan-18 12:48 35.294588 -119.266596 326 30192ft 415kts
31-Jan-18 12:49 35.388544 -119.344983 326 30178ft 410kts
31-Jan-18 12:50 35.480765 -119.422231 326 30176ft 406kts
31-Jan-18 12:51 35.569116 -119.496450 326 30172ft 407kts
31-Jan-18 12:52 35.661060 -119.573928 325 30171ft 408kts
31-Jan-18 12:53 35.696232 -119.693174 259 30192ft 427kts
31-Jan-18 12:54 35.660134 -119.832360 255 30170ft 433kts
31-Jan-18 12:55 35.638968 -119.970974 285 30181ft 419kts
31-Jan-18 12:56 35.694128 -120.086887 334 30169ft 408kts
31-Jan-18 12:57 35.802790 -120.119094 342 30167ft 409kts
31-Jan-18 12:58 35.904199 -120.174632 332 30172ft 411kts
31-Jan-18 12:59 36.000026 -120.241967 330 30185ft 412kts
31-Jan-18 13:00 36.095717 -120.312715 329 30172ft 410kts
31-Jan-18 13:01 36.178709 -120.376211 328 29932ft 389kts
31-Jan-18 13:02 36.268561 -120.443592 330 28385ft 388kts
31-Jan-18 13:03 36.354571 -120.501940 333 26956ft 385kts
31-Jan-18 13:04 36.438988 -120.562602 325 25561ft 381kts
31-Jan-18 13:05 36.516716 -120.625266 327 24341ft 375kts
31-Jan-18 13:06 36.594368 -120.688469 325 23133ft 370kts
31-Jan-18 13:07 36.678028 -120.756461 332 20642ft 374kts
31-Jan-18 13:08 36.758598 -120.817537 313 20159ft 320kts
31-Jan-18 13:09 36.821059 -120.898981 316 20128ft 352kts
31-Jan-18 13:10 36.890144 -120.982091 317 17909ft 348kts
31-Jan-18 13:11 36.959957 -121.059243 319 15947ft 336kts
31-Jan-18 13:12 37.024357 -121.136526 315 14281ft 320kts
31-Jan-18 13:13 37.085385 -121.212981 316 12481ft 312kts
31-Jan-18 13:14 37.142836 -121.279416 319 10993ft 301kts
31-Jan-18 13:15 37.203071 -121.345454 318 10026ft 280kts
31-Jan-18 13:16 37.257154 -121.408729 314 10034ft 275kts
31-Jan-18 13:17 37.310755 -121.476331 316 10024ft 274kts
31-Jan-18 13:18 37.363994 -121.540931 317 10027ft 269kts
31-Jan-18 13:19 37.417541 -121.605177 317 9798ft 274kts
31-Jan-18 13:20 37.459548 -121.681499 292 8231ft 276kts
31-Jan-18 13:21 37.486574 -121.767785 292 6560ft 261kts
31-Jan-18 13:22 37.511097 -121.845740 297 5737ft 230kts
31-Jan-18 13:23 37.533566 -121.912461 295 4645ft 221kts
31-Jan-18 13:24 37.554766 -121.976721 293 4129ft 193kts
31-Jan-18 13:25 37.586502 -122.028378 314 3613ft 194kts
31-Jan-18 13:26 37.620362 -122.075279 301 2822ft 181kts
31-Jan-18 13:27 37.641184 -122.123354 309 1885ft 141kts
31-Jan-18 13:28 37.665148 -122.159792 309 1185ft 135kts
31-Jan-18 13:29 37.689684 -122.196411 308 514ft 137kts
31-Jan-18 13:30 37.711079 -122.228622 309 17ft 62kts
31-Jan-18 13:31 37.717742 -122.238594 310 17ft 49kts
31-Jan-18 13:32 37.718338 -122.236323 121 17ft 20kts
31-Jan-18 13:33 37.714172 -122.229474 129 17ft 28kts
31-Jan-18 13:34 37.712134 -122.223255 38 17ft 18kts
31-Jan-18 13:35 37.711390 -122.219553 126 17ft 20kts
31-Jan-18 13:36 37.710631 -122.216873 85 17ft 0kts
31-Jan-18 13:37 37.710631 -122.216861 85 17ft 0kts

Navigation Log

Ident Type
Flight plan parsing failed, navigation log unavailable